Terminal Aerodrome Forecast
Issued by NWS Melbourne, FL

Home | Current Version | Previous Version | Text Only | Print | Product List | Glossary On
Versions: 1 2 3 4 5 6 7 8 9 10 11 12 13 14 15 16 17 18 19 20 21 22 23 24 25 26 27 28 29 30 31
000
FTUS42 KMLB 191457 AAD
TAFMCO
TAF AMD
KMCO 191457Z 1915/2012 33010KT P6SM SCT014 SCT030 OVC060
     FM191800 31010KT P6SM SCT030
     FM200200 05004KT P6SM SKC=

USA.gov is the U.S. government's official web portal to all federal, state and local government web resources and services.